Waverly, Minnesota
Current Conditions -  °F | °C
As of 11:15 PM on Friday 19 Dec 2014 (Local Time) from KCFE Reporting Station
Haze Haze  
Wind Chill: 24°   Ceiling: 700
Heat Index: 30°   Visibility: 4mi
Dew Point: 28°   Wind: 6mph
Humidity: 90%   Direction: 150°SSE
Pressure: 30.15"   Gusts: NA
Location:  45.07°N, 93.97°W
Report Text: KCFE 200515Z AUTO 15005KT 4SM BR OVC007 M01/M02 A3015 RMK AO2 T10101025
Loading
Personal Weather Stations






























Interactive Weather Map New forecast layout! Learn more

10-Day Weather Forecast

Advertisements
Track Severe Weather on mobile